Aérodrome :
LOGIN :

S'inscrire | Disclaimer

   EN    FR    IT 

 










Légende :    VFR   VFR Marginal   IFR   IFR Intensif   IFR Très Intensif
Visi : 
Plafond : 
>= 8 km
>= 3000ft
5 à 8 km
1000 à 3000 ft
1500m à 5 km
500 à 1000 ft
800 à 1500m
200 à 500 ft
< 800m
< 200 ft
Symboles :   Orages  Brouillard  Fortes neiges  Fortes précipitations  Vent > 20 kt
SIGMETs :   Divers  Orages  Givrage  Turbulence  Onde Orograph.  Cendres Volcan.







- Altitude de l'aérodrome : 13 ft
- Code IATA : CEQ
- Voir les cartes d'approche


LFMD - Cannes Mandelieu

DERNIER METAR :
  • 180430Z AUTO 02006KT 340V050 CAVOK 19/15 Q1015 NOSIG

METARs EXPIRÉS :
  • 180400Z AUTO 01005KT 330V040 CAVOK 19/15 Q1015 NOSIG
  • 180330Z AUTO 01004KT 330V040 CAVOK 19/15 Q1015 NOSIG
  • 180300Z AUTO 36004KT 310V030 CAVOK 19/15 Q1015 NOSIG
  • 180230Z AUTO 36003KT 330V040 CAVOK 19/15 Q1015 NOSIG
  • 180200Z AUTO 01003KT 320V060 CAVOK 19/15 Q1015

TAF TAF LFMD
Valide du 18 à 03h jusqu'au 19 à 03h UTC


180200Z 1803/1903 VRB03KT CAVOK
BECMG 1807/1809 16005KT
TEMPO 1812/1818 FEW050CB
ATIS : +33 4 93 48 73 23
Pas de NOTAMs connus pour ce terrain.



MET'MAP, la Météo Aéronautique d'un coup d'oeil ! - Copyright ORBIFLY Décembre 2007 - Disclaimer

ORBIFLY MET'MAP TEAM :

Programmation & Développement : Alexandra Zaïnal
Conception & Développement : Baudouin d'Aumeries
Co-Programmation & Développement : Marc-Olivier Méhu
Soutien technique & logistique : Manuel Goepfert

Contact : metmap@orbifly.com




SOURCES & CREDITS :

   NOAA